createdAt,value
2023-05-01T00:00:58.650Z,68.75
2023-05-01T00:01:58.612Z,70.69
2023-05-01T00:02:58.745Z,72.28
2023-05-01T00:03:58.882Z,72.31
2023-05-01T00:04:58.700Z,71.96
2023-05-01T00:05:58.634Z,70.05
2023-05-01T00:06:58.576Z,69.84
2023-05-01T00:07:58.611Z,71.73
2023-05-01T00:08:58.550Z,70.46
2023-05-01T00:09:58.856Z,69.16
2023-05-01T00:10:58.548Z,68.99
2023-05-01T00:11:58.547Z,69.10
2023-05-01T00:12:58.516Z,69.81
2023-05-01T00:13:58.497Z,70.74
2023-05-01T00:14:58.488Z,71.10
2023-05-01T00:15:58.526Z,71.84
2023-05-01T00:16:58.582Z,70.48
2023-05-01T00:17:58.597Z,70.81
2023-05-01T00:18:58.458Z,70.34
2023-05-01T00:19:58.747Z,70.99
2023-05-01T00:20:58.436Z,71.60
2023-05-01T00:21:58.414Z,71.28
2023-05-01T00:22:58.405Z,71.18
2023-05-01T00:23:58.398Z,71.04
2023-05-01T00:24:58.401Z,70.09
2023-05-01T00:25:58.396Z,70.19
2023-05-01T00:26:58.377Z,69.77
2023-05-01T00:27:58.383Z,70.22
2023-05-01T00:28:58.407Z,70.69
2023-05-01T00:29:58.598Z,70.15
2023-05-01T00:30:58.346Z,70.88
2023-05-01T00:31:58.373Z,71.03
2023-05-01T00:32:58.356Z,71.69
2023-05-01T00:33:58.300Z,71.97
2023-05-01T00:34:58.292Z,72.44
2023-05-01T00:35:58.290Z,72.02
2023-05-01T00:36:58.268Z,72.49
2023-05-01T00:37:58.298Z,72.37
2023-05-01T00:38:58.249Z,72.08
2023-05-01T00:39:58.666Z,72.46
2023-05-01T00:40:58.275Z,72.95
2023-05-01T00:41:58.217Z,72.09
2023-05-01T00:42:58.204Z,70.53
2023-05-01T00:43:58.205Z,68.66
2023-05-01T00:44:58.204Z,68.07
2023-05-01T00:45:58.270Z,69.45
2023-05-01T00:46:58.205Z,70.74
2023-05-01T00:47:58.228Z,69.09
2023-05-01T00:48:58.147Z,68.28
2023-05-01T00:49:58.255Z,68.52
2023-05-01T00:50:58.139Z,68.23
2023-05-01T00:51:58.140Z,69.50
2023-05-01T00:52:58.106Z,70.81
2023-05-01T00:53:58.095Z,70.47
2023-05-01T00:54:58.091Z,70.96
2023-05-01T00:55:58.091Z,71.27
2023-05-01T00:56:58.074Z,69.67
2023-05-01T00:57:58.060Z,68.98
2023-05-01T00:58:58.056Z,69.72
2023-05-01T00:59:58.250Z,69.24
2023-05-01T01:00:58.047Z,69.13
2023-05-01T01:01:58.015Z,69.11
2023-05-01T01:02:58.064Z,69.94
2023-05-01T01:03:58.017Z,69.60
2023-05-01T01:04:58.319Z,70.26
2023-05-01T01:05:58.036Z,70.16
2023-05-01T01:06:57.975Z,70.41
2023-05-01T01:07:57.955Z,69.96
2023-05-01T01:08:57.937Z,69.26
2023-05-01T01:09:58.202Z,68.66
2023-05-01T01:10:57.931Z,70.46
2023-05-01T01:11:57.919Z,70.21
2023-05-01T01:12:57.906Z,69.66
2023-05-01T01:13:57.896Z,69.80
2023-05-01T01:14:57.885Z,70.70
2023-05-01T01:15:57.906Z,69.94
2023-05-01T01:16:57.892Z,70.01
2023-05-01T01:17:57.860Z,70.67
2023-05-01T01:18:57.891Z,69.87
2023-05-01T01:19:58.017Z,69.86
2023-05-01T01:20:57.861Z,70.02
2023-05-01T01:21:57.812Z,70.73
2023-05-01T01:22:57.883Z,69.69
2023-05-01T01:23:57.866Z,69.95
2023-05-01T01:24:57.780Z,69.35
2023-05-01T01:25:57.958Z,68.41
2023-05-01T01:26:57.759Z,69.69
2023-05-01T01:27:57.750Z,69.23
2023-05-01T01:28:57.751Z,69.19
2023-05-01T01:29:57.970Z,70.54
2023-05-01T01:30:57.771Z,69.48
2023-05-01T01:31:57.716Z,69.68
2023-05-01T01:32:57.761Z,69.92
2023-05-01T01:33:57.689Z,68.88
2023-05-01T01:34:57.678Z,68.74
2023-05-01T01:35:57.684Z,68.93
2023-05-01T01:36:57.663Z,68.39
2023-05-01T01:37:57.666Z,69.28
2023-05-01T01:38:57.641Z,69.56
2023-05-01T01:39:57.886Z,69.09
2023-05-01T01:40:57.651Z,69.01
2023-05-01T01:41:57.613Z,68.92
2023-05-01T01:42:57.602Z,68.94
2023-05-01T01:43:57.596Z,68.70
2023-05-01T01:44:57.584Z,68.15
2023-05-01T01:45:57.592Z,67.38
2023-05-01T01:46:57.558Z,68.41
2023-05-01T01:47:57.584Z,68.96
2023-05-01T01:48:57.540Z,68.31
2023-05-01T01:49:57.768Z,68.23
2023-05-01T01:50:57.534Z,69.19
2023-05-01T01:51:57.513Z,69.54
2023-05-01T01:52:57.501Z,69.85
2023-05-01T01:53:57.488Z,69.68
2023-05-01T01:54:58.498Z,69.92
2023-05-01T01:55:57.487Z,70.46
2023-05-01T01:56:57.461Z,71.70
2023-05-01T01:57:57.456Z,70.28
2023-05-01T01:58:57.452Z,69.87
2023-05-01T01:59:57.789Z,70.26
2023-05-01T02:00:57.434Z,70.20
2023-05-01T02:01:57.548Z,69.76
2023-05-01T02:02:57.525Z,70.12
2023-05-01T02:03:57.495Z,70.03
2023-05-01T02:04:57.436Z,70.69
2023-05-01T02:05:57.389Z,70.71
2023-05-01T02:06:57.368Z,70.33
2023-05-01T02:07:57.374Z,70.66
2023-05-01T02:08:57.352Z,69.55
2023-05-01T02:09:57.573Z,70.12
2023-05-01T02:10:58.860Z,69.77
2023-05-01T02:11:57.325Z,70.80
2023-05-01T02:12:57.315Z,69.92
2023-05-01T02:13:57.327Z,70.23
2023-05-01T02:14:57.304Z,70.55
2023-05-01T02:15:57.390Z,70.45
2023-05-01T02:16:57.269Z,70.28
2023-05-01T02:17:57.311Z,71.44
2023-05-01T02:18:57.263Z,70.05
2023-05-01T02:19:57.471Z,69.97
2023-05-01T02:20:57.256Z,70.33
2023-05-01T02:21:57.240Z,70.51
2023-05-01T02:22:57.215Z,71.02
2023-05-01T02:23:57.210Z,69.85
2023-05-01T02:24:57.217Z,70.00
2023-05-01T02:25:57.211Z,70.81
2023-05-01T02:26:57.195Z,69.85
2023-05-01T02:27:57.166Z,69.60
2023-05-01T02:28:57.153Z,70.04
2023-05-01T02:29:57.387Z,69.23
2023-05-01T02:30:57.157Z,70.27
2023-05-01T02:31:57.316Z,70.21
2023-05-01T02:32:57.153Z,69.76
2023-05-01T02:33:57.112Z,69.65
2023-05-01T02:34:57.094Z,69.62
2023-05-01T02:35:57.097Z,68.90
2023-05-01T02:36:57.088Z,68.79
2023-05-01T02:37:57.067Z,68.44
2023-05-01T02:38:57.071Z,68.57
2023-05-01T02:39:57.245Z,69.07
2023-05-01T02:40:57.155Z,69.46
2023-05-01T02:41:57.021Z,68.67
2023-05-01T02:42:57.029Z,68.29
2023-05-01T02:43:57.008Z,68.81
2023-05-01T02:44:57.006Z,68.85
2023-05-01T02:45:57.020Z,69.62
2023-05-01T02:46:57.065Z,68.84
2023-05-01T02:47:57.024Z,68.60
2023-05-01T02:48:56.958Z,68.51
2023-05-01T02:49:57.161Z,68.01
2023-05-01T02:50:56.951Z,68.47
2023-05-01T02:51:56.943Z,68.83
2023-05-01T02:52:56.924Z,67.73
2023-05-01T02:53:56.910Z,69.07
2023-05-01T02:54:56.889Z,69.03
2023-05-01T02:55:57.895Z,67.85
2023-05-01T02:56:56.894Z,69.06
2023-05-01T02:57:56.869Z,68.26
2023-05-01T02:58:56.877Z,69.02
2023-05-01T02:59:57.088Z,66.98
2023-05-01T03:00:56.864Z,68.34
2023-05-01T03:01:56.840Z,68.83
2023-05-01T03:02:56.933Z,69.28
2023-05-01T03:03:56.841Z,68.46
2023-05-01T03:04:56.800Z,68.41
2023-05-01T03:05:56.824Z,68.52
2023-05-01T03:06:56.793Z,67.93
2023-05-01T03:07:56.767Z,67.76
2023-05-01T03:08:56.760Z,68.05
2023-05-01T03:09:57.051Z,67.90
2023-05-01T03:10:56.759Z,69.21
2023-05-01T03:11:56.736Z,67.61
2023-05-01T03:12:56.721Z,66.69
2023-05-01T03:13:56.722Z,66.82
2023-05-01T03:14:56.698Z,66.12
2023-05-01T03:15:56.725Z,66.75
2023-05-01T03:16:56.687Z,68.46
2023-05-01T03:17:56.757Z,70.34
2023-05-01T03:18:56.654Z,70.48
2023-05-01T03:19:56.957Z,70.59
2023-05-01T03:20:56.666Z,68.18
2023-05-01T03:21:56.633Z,65.22
2023-05-01T03:22:56.625Z,65.87
2023-05-01T03:23:56.618Z,68.26
2023-05-01T03:24:56.603Z,67.86
2023-05-01T03:25:56.604Z,67.75
2023-05-01T03:26:56.600Z,65.98
2023-05-01T03:27:56.573Z,67.50
2023-05-01T03:28:56.567Z,66.81
2023-05-01T03:29:56.731Z,68.69
2023-05-01T03:30:56.559Z,69.62
2023-05-01T03:31:56.544Z,69.65
2023-05-01T03:32:56.634Z,70.35
2023-05-01T03:33:56.519Z,68.02
2023-05-01T03:34:56.557Z,66.42
2023-05-01T03:35:56.508Z,68.06
2023-05-01T03:36:56.497Z,65.58
2023-05-01T03:37:56.513Z,64.96
2023-05-01T03:38:56.462Z,67.11
2023-05-01T03:39:56.695Z,66.94
2023-05-01T03:40:56.457Z,67.57
2023-05-01T03:41:56.447Z,67.37
2023-05-01T03:42:56.424Z,67.51
2023-05-01T03:43:56.413Z,67.76
2023-05-01T03:44:56.413Z,66.79
2023-05-01T03:45:56.425Z,66.22
2023-05-01T03:46:56.388Z,65.92
2023-05-01T03:47:56.425Z,66.52
2023-05-01T03:48:56.373Z,66.61
2023-05-01T03:49:56.521Z,68.44
2023-05-01T03:50:57.355Z,67.42
2023-05-01T03:51:56.336Z,66.55
2023-05-01T03:52:56.322Z,66.49
2023-05-01T03:53:56.319Z,68.24
2023-05-01T03:54:56.301Z,68.57
2023-05-01T03:55:56.305Z,68.08
2023-05-01T03:56:56.278Z,68.57
2023-05-01T03:57:56.274Z,67.94
2023-05-01T03:58:56.266Z,66.70
2023-05-01T03:59:56.579Z,67.47
2023-05-01T04:00:56.259Z,67.05
2023-05-01T04:01:56.283Z,67.52
2023-05-01T04:02:57.436Z,67.46
2023-05-01T04:03:56.308Z,67.94
2023-05-01T04:04:56.201Z,67.49
2023-05-01T04:05:56.289Z,67.79
2023-05-01T04:06:56.192Z,67.63
2023-05-01T04:07:56.180Z,66.83
2023-05-01T04:08:56.185Z,67.83
2023-05-01T04:09:56.338Z,68.26
2023-05-01T04:10:56.151Z,66.99
2023-05-01T04:11:56.134Z,68.57
2023-05-01T04:12:56.124Z,67.96
2023-05-01T04:13:56.119Z,68.26
2023-05-01T04:14:56.123Z,68.33
2023-05-01T04:15:56.187Z,68.27
2023-05-01T04:16:56.086Z,68.25
2023-05-01T04:17:56.103Z,68.62
2023-05-01T04:18:56.073Z,68.97
2023-05-01T04:19:56.453Z,70.80
2023-05-01T04:20:56.052Z,70.43
2023-05-01T04:21:57.042Z,68.97
2023-05-01T04:22:56.045Z,67.17
2023-05-01T04:23:56.022Z,66.95
2023-05-01T04:24:56.031Z,67.29
2023-05-01T04:25:56.014Z,67.01
2023-05-01T04:26:55.988Z,69.27
2023-05-01T04:27:55.981Z,69.29
2023-05-01T04:28:55.968Z,69.54
2023-05-01T04:29:56.119Z,68.22
2023-05-01T04:30:55.953Z,67.26
2023-05-01T04:31:55.960Z,69.62
2023-05-01T04:32:55.944Z,69.15
2023-05-01T04:33:55.922Z,67.89
2023-05-01T04:34:55.930Z,66.06
2023-05-01T04:35:55.911Z,69.57
2023-05-01T04:36:55.892Z,68.52
2023-05-01T04:37:55.898Z,68.88
2023-05-01T04:38:55.881Z,69.75
2023-05-01T04:39:56.352Z,69.44
2023-05-01T04:40:55.854Z,69.38
2023-05-01T04:41:55.841Z,67.77
2023-05-01T04:42:55.825Z,68.16
2023-05-01T04:43:55.825Z,67.20
2023-05-01T04:44:55.820Z,67.31
2023-05-01T04:45:55.818Z,68.99
2023-05-01T04:46:55.804Z,67.10
2023-05-01T04:47:55.828Z,67.13
2023-05-01T04:48:55.780Z,67.26
2023-05-01T04:49:55.967Z,68.46
2023-05-01T04:50:55.764Z,68.77
2023-05-01T04:51:55.732Z,68.53
2023-05-01T04:52:55.746Z,69.29
2023-05-01T04:53:55.735Z,69.86
2023-05-01T04:54:55.714Z,68.55
2023-05-01T04:55:55.733Z,69.37
2023-05-01T04:56:55.692Z,69.14
2023-05-01T04:57:55.687Z,68.90
2023-05-01T04:58:55.687Z,69.78
2023-05-01T04:59:55.961Z,69.16
2023-05-01T05:00:55.665Z,69.39
2023-05-01T05:01:55.700Z,69.88
2023-05-01T05:02:55.704Z,69.69
2023-05-01T05:03:55.691Z,68.88
2023-05-01T05:04:55.616Z,69.19
2023-05-01T05:05:55.617Z,68.96
2023-05-01T05:06:55.622Z,69.17
2023-05-01T05:07:55.584Z,68.73
2023-05-01T05:08:55.573Z,69.52
2023-05-01T05:09:55.848Z,69.59
2023-05-01T05:10:55.565Z,69.30
2023-05-01T05:11:55.551Z,69.26
2023-05-01T05:12:55.552Z,69.00
2023-05-01T05:13:55.530Z,68.78
2023-05-01T05:14:55.523Z,68.22
2023-05-01T05:15:55.566Z,66.14
2023-05-01T05:16:55.541Z,66.78
2023-05-01T05:17:56.755Z,66.35
2023-05-01T05:18:56.480Z,65.95
2023-05-01T05:19:55.662Z,66.71
2023-05-01T05:20:55.473Z,64.80
2023-05-01T05:21:55.449Z,66.35
2023-05-01T05:22:55.443Z,65.49
2023-05-01T05:23:55.435Z,65.38
2023-05-01T05:24:55.420Z,66.17
2023-05-01T05:25:55.433Z,67.04
2023-05-01T05:26:55.396Z,66.20
2023-05-01T05:27:55.426Z,64.63
2023-05-01T05:28:55.377Z,66.77
2023-05-01T05:29:55.553Z,66.77
2023-05-01T05:30:55.529Z,66.25
2023-05-01T05:31:55.373Z,65.06
2023-05-01T05:32:55.397Z,66.37
2023-05-01T05:33:55.326Z,66.22
2023-05-01T05:34:55.318Z,67.31
2023-05-01T05:35:55.322Z,65.80
2023-05-01T05:36:55.304Z,66.35
2023-05-01T05:37:56.284Z,65.41
2023-05-01T05:38:55.281Z,63.67
2023-05-01T05:39:55.541Z,63.84
2023-05-01T05:40:55.252Z,64.04
2023-05-01T05:41:55.259Z,64.19
2023-05-01T05:42:55.237Z,65.40
2023-05-01T05:43:55.234Z,64.68
2023-05-01T05:44:55.226Z,64.62
2023-05-01T05:45:55.223Z,65.08
2023-05-01T05:46:56.216Z,64.28
2023-05-01T05:47:55.216Z,64.21
2023-05-01T05:48:55.179Z,64.65
2023-05-01T05:49:55.335Z,63.48
2023-05-01T05:50:55.184Z,63.82
2023-05-01T05:51:55.159Z,63.85
2023-05-01T05:52:55.135Z,64.00
2023-05-01T05:53:55.159Z,63.23
2023-05-01T05:54:55.115Z,65.38
2023-05-01T05:55:55.112Z,64.59
2023-05-01T05:56:55.107Z,64.75
2023-05-01T05:57:55.101Z,63.62
2023-05-01T05:58:55.076Z,63.73
2023-05-01T05:59:55.482Z,64.59
2023-05-01T06:00:55.057Z,64.81
2023-05-01T06:01:55.068Z,64.91
2023-05-01T06:02:55.256Z,63.51
2023-05-01T06:03:55.058Z,64.83
2023-05-01T06:04:55.010Z,63.98
2023-05-01T06:05:55.118Z,64.24
2023-05-01T06:06:55.121Z,64.47
2023-05-01T06:07:54.988Z,63.46
2023-05-01T06:08:54.972Z,63.89
2023-05-01T06:09:55.267Z,64.67
2023-05-01T06:10:54.985Z,64.49
2023-05-01T06:11:54.963Z,64.65
2023-05-01T06:13:03.022Z,65.00
2023-05-01T06:13:55.926Z,63.98
2023-05-01T06:14:54.929Z,64.01
2023-05-01T06:15:54.967Z,64.65
2023-05-01T06:16:54.905Z,64.04
2023-05-01T06:17:54.931Z,63.27
2023-05-01T06:18:54.872Z,63.35
2023-05-01T06:19:55.130Z,64.73
2023-05-01T06:20:54.854Z,63.97
2023-05-01T06:21:54.852Z,63.93
2023-05-01T06:22:54.839Z,64.93
2023-05-01T06:23:54.834Z,63.21
2023-05-01T06:24:54.870Z,63.69
2023-05-01T06:25:54.855Z,64.09
2023-05-01T06:26:54.846Z,65.23
2023-05-01T06:27:54.793Z,64.65
2023-05-01T06:28:54.770Z,63.72
2023-05-01T06:29:55.008Z,63.51
2023-05-01T06:30:54.801Z,63.04
2023-05-01T06:31:54.804Z,62.80
2023-05-01T06:32:54.824Z,64.50
2023-05-01T06:33:54.725Z,63.21
2023-05-01T06:34:54.709Z,64.54
2023-05-01T06:35:54.717Z,63.20
2023-05-01T06:36:54.700Z,62.72
2023-05-01T06:37:54.680Z,64.68
2023-05-01T06:38:54.669Z,63.30
2023-05-01T06:39:55.188Z,63.89
2023-05-01T06:40:54.646Z,64.60
2023-05-01T06:41:54.651Z,64.59
2023-05-01T06:42:54.637Z,64.62
2023-05-01T06:43:54.619Z,64.70
2023-05-01T06:44:54.604Z,63.74
2023-05-01T06:45:54.597Z,63.51
2023-05-01T06:46:54.630Z,64.52
2023-05-01T06:47:54.660Z,63.47
2023-05-01T06:48:54.584Z,63.59
2023-05-01T06:49:54.699Z,63.83
2023-05-01T06:50:54.545Z,63.70
2023-05-01T06:51:54.552Z,64.23
2023-05-01T06:52:54.537Z,65.43
2023-05-01T06:53:54.521Z,64.09
2023-05-01T06:54:54.514Z,63.15
2023-05-01T06:55:54.501Z,64.43
2023-05-01T06:56:54.500Z,63.99
2023-05-01T06:57:54.487Z,62.87
2023-05-01T06:58:54.467Z,65.22
2023-05-01T06:59:54.629Z,64.72
2023-05-01T07:00:54.530Z,64.79
2023-05-01T07:01:54.479Z,63.56
2023-05-01T07:02:54.478Z,63.83
2023-05-01T07:03:54.413Z,64.42
2023-05-01T07:04:54.399Z,64.88
2023-05-01T07:05:54.392Z,64.02
2023-05-01T07:06:54.415Z,64.17
2023-05-01T07:08:01.125Z,64.18
2023-05-01T07:08:56.366Z,64.14
2023-05-01T07:09:54.664Z,63.76
2023-05-01T07:10:54.343Z,63.97
2023-05-01T07:11:54.348Z,65.63
2023-05-01T07:12:54.324Z,65.34
2023-05-01T07:13:54.323Z,64.77
2023-05-01T07:14:54.359Z,63.49
2023-05-01T07:15:54.631Z,63.65
2023-05-01T07:16:55.385Z,63.67
2023-05-01T07:17:54.325Z,63.15
2023-05-01T07:18:54.261Z,63.18
2023-05-01T07:19:54.412Z,63.57
2023-05-01T07:20:54.239Z,64.07
2023-05-01T07:21:54.237Z,63.50
2023-05-01T07:22:54.219Z,63.09
2023-05-01T07:23:54.207Z,63.84
2023-05-01T07:24:54.188Z,62.81
2023-05-01T07:25:54.186Z,64.80
2023-05-01T07:26:54.192Z,64.91
2023-05-01T07:27:54.194Z,64.84
2023-05-01T07:28:54.167Z,65.44
2023-05-01T07:29:54.431Z,64.48
2023-05-01T07:30:54.136Z,63.95
2023-05-01T07:31:54.194Z,63.43
2023-05-01T07:32:54.158Z,64.48
2023-05-01T07:33:54.307Z,63.81
2023-05-01T07:34:55.110Z,64.78
2023-05-01T07:35:54.075Z,63.62
2023-05-01T07:36:54.084Z,64.11
2023-05-01T07:37:54.055Z,64.13
2023-05-01T07:38:54.049Z,65.52
2023-05-01T07:39:54.240Z,64.74
2023-05-01T07:40:54.032Z,64.74
2023-05-01T07:41:54.030Z,64.30
2023-05-01T07:42:54.657Z,64.35
2023-05-01T07:43:55.001Z,65.17
2023-05-01T07:44:53.995Z,65.98
2023-05-01T07:45:53.999Z,65.85
2023-05-01T07:46:53.978Z,64.00
2023-05-01T07:47:53.975Z,64.96
2023-05-01T07:48:53.999Z,65.53
2023-05-01T07:49:54.082Z,65.52
2023-05-01T07:50:53.918Z,65.65
2023-05-01T07:51:53.927Z,65.18
2023-05-01T07:52:53.917Z,66.07
2023-05-01T07:53:53.901Z,64.82
2023-05-01T07:54:53.884Z,65.93
2023-05-01T07:55:53.872Z,65.76
2023-05-01T07:56:53.882Z,65.50
2023-05-01T07:57:53.856Z,65.79
2023-05-01T07:58:53.850Z,65.34
2023-05-01T07:59:54.013Z,65.77
2023-05-01T08:00:53.832Z,64.68
2023-05-01T08:01:53.906Z,65.53
2023-05-01T08:02:53.972Z,65.84
2023-05-01T08:03:53.882Z,65.19
2023-05-01T08:04:53.975Z,65.98
2023-05-01T08:05:53.773Z,64.88
2023-05-01T08:06:53.896Z,64.54
2023-05-01T08:07:53.754Z,64.17
2023-05-01T08:08:53.755Z,65.24
2023-05-01T08:09:53.807Z,65.32
2023-05-01T08:10:53.722Z,65.88
2023-05-01T08:11:53.738Z,65.78
2023-05-01T08:12:53.709Z,64.87
2023-05-01T08:13:53.694Z,64.85
2023-05-01T08:14:53.700Z,64.94
2023-05-01T08:15:53.703Z,66.54
2023-05-01T08:16:53.680Z,66.67
2023-05-01T08:17:53.758Z,65.36
2023-05-01T08:18:53.667Z,65.88
2023-05-01T08:19:53.774Z,65.47
2023-05-01T08:20:53.627Z,65.41
2023-05-01T08:21:53.634Z,65.85
2023-05-01T08:22:53.616Z,65.24
2023-05-01T08:23:53.605Z,65.43
2023-05-01T08:24:53.599Z,64.68
2023-05-01T08:25:53.593Z,64.99
2023-05-01T08:26:53.587Z,64.31
2023-05-01T08:27:53.572Z,65.88
2023-05-01T08:28:53.556Z,65.26
2023-05-01T08:29:53.575Z,65.67
2023-05-01T08:30:53.546Z,66.74
2023-05-01T08:31:53.563Z,67.00
2023-05-01T08:32:53.588Z,66.15
2023-05-01T08:33:53.501Z,65.56
2023-05-01T08:34:53.496Z,67.39
2023-05-01T08:35:53.496Z,68.01
2023-05-01T08:36:53.487Z,67.71
2023-05-01T08:37:53.550Z,67.09
2023-05-01T08:38:53.457Z,66.86
2023-05-01T08:39:53.452Z,67.65
2023-05-01T08:40:53.483Z,67.02
2023-05-01T08:41:53.429Z,67.26
2023-05-01T08:42:53.413Z,66.76
2023-05-01T08:43:53.402Z,66.59
2023-05-01T08:44:53.405Z,67.01
2023-05-01T08:45:53.379Z,66.24
2023-05-01T08:46:53.409Z,67.29
2023-05-01T08:47:53.401Z,68.53
2023-05-01T08:48:53.344Z,66.76
2023-05-01T08:49:53.355Z,66.26
2023-05-01T08:50:53.322Z,66.83
2023-05-01T08:51:53.324Z,66.98
2023-05-01T08:52:54.302Z,67.01
2023-05-01T08:53:53.299Z,66.17
2023-05-01T08:54:53.290Z,67.14
2023-05-01T08:55:53.366Z,67.16
2023-05-01T08:56:53.284Z,67.42
2023-05-01T08:57:53.275Z,67.19
2023-05-01T08:58:53.249Z,66.37
2023-05-01T08:59:53.254Z,66.59
2023-05-01T09:00:53.274Z,66.21
2023-05-01T09:01:53.298Z,65.74
2023-05-01T09:02:53.238Z,65.33
2023-05-01T09:03:53.247Z,63.87
2023-05-01T09:04:53.194Z,66.47
2023-05-01T09:05:53.186Z,63.37
2023-05-01T09:06:53.219Z,65.33
2023-05-01T09:07:53.156Z,65.07
2023-05-01T09:08:53.144Z,63.49
2023-05-01T09:09:53.231Z,63.16
2023-05-01T09:10:53.131Z,63.68
2023-05-01T09:11:53.146Z,63.04
2023-05-01T09:12:53.100Z,64.95
2023-05-01T09:13:53.102Z,64.35
2023-05-01T09:14:53.094Z,66.25
2023-05-01T09:15:53.130Z,65.98
2023-05-01T09:16:53.134Z,63.90
2023-05-01T09:17:53.074Z,64.07
2023-05-01T09:18:53.045Z,64.10
2023-05-01T09:19:53.035Z,65.17
2023-05-01T09:20:53.045Z,65.77
2023-05-01T09:21:53.027Z,64.21
2023-05-01T09:22:53.002Z,64.04
2023-05-01T09:23:52.985Z,63.53
2023-05-01T09:24:52.976Z,63.67
2023-05-01T09:25:52.972Z,64.65
2023-05-01T09:26:52.968Z,65.65
2023-05-01T09:27:52.951Z,66.66
2023-05-01T09:28:52.952Z,64.72
2023-05-01T09:29:52.943Z,64.56
2023-05-01T09:30:52.928Z,66.32
2023-05-01T09:31:53.054Z,67.77
2023-05-01T09:32:52.951Z,64.30
2023-05-01T09:33:52.894Z,63.81
2023-05-01T09:34:52.887Z,64.06
2023-05-01T09:35:52.878Z,63.78
2023-05-01T09:36:52.880Z,63.86
2023-05-01T09:37:52.861Z,64.63
2023-05-01T09:38:52.845Z,65.93
2023-05-01T09:39:52.838Z,64.48
2023-05-01T09:40:52.824Z,64.97
2023-05-01T09:41:52.829Z,66.34
2023-05-01T09:42:52.827Z,63.51
2023-05-01T09:43:52.821Z,65.65
2023-05-01T09:44:52.794Z,65.63
2023-05-01T09:45:52.831Z,63.93
2023-05-01T09:46:52.777Z,63.97
2023-05-01T09:47:52.792Z,64.75
2023-05-01T09:48:52.757Z,66.90
2023-05-01T09:49:52.755Z,68.06
2023-05-01T09:50:52.737Z,65.73
2023-05-01T09:51:52.743Z,66.40
2023-05-01T09:52:52.716Z,66.97
2023-05-01T09:53:52.704Z,68.47
2023-05-01T09:54:52.716Z,67.34
2023-05-01T09:55:52.683Z,65.43
2023-05-01T09:56:52.688Z,66.74
2023-05-01T09:57:52.673Z,66.95
2023-05-01T09:58:52.662Z,68.28
2023-05-01T09:59:52.658Z,64.82
2023-05-01T10:00:52.702Z,66.42
2023-05-01T10:01:52.801Z,66.98
2023-05-01T10:02:52.739Z,64.79
2023-05-01T10:03:52.680Z,66.51
2023-05-01T10:04:52.608Z,67.43
2023-05-01T10:05:52.588Z,66.33
2023-05-01T10:06:52.629Z,65.88
2023-05-01T10:07:52.581Z,64.50
2023-05-01T10:08:52.593Z,65.72
2023-05-01T10:09:52.568Z,65.25
2023-05-01T10:10:52.537Z,65.65
2023-05-01T10:11:52.556Z,65.37
2023-05-01T10:12:52.523Z,66.87
2023-05-01T10:13:52.513Z,64.04
2023-05-01T10:14:52.542Z,64.74
2023-05-01T10:15:52.493Z,64.84
2023-05-01T10:16:52.693Z,65.70
2023-05-01T10:17:52.607Z,65.41
2023-05-01T10:18:52.466Z,65.69
2023-05-01T10:19:52.455Z,65.47
2023-05-01T10:20:52.457Z,68.07
2023-05-01T10:21:52.437Z,67.37
2023-05-01T10:22:52.424Z,64.46
2023-05-01T10:23:52.438Z,64.88
2023-05-01T10:24:52.575Z,64.51
2023-05-01T10:25:52.484Z,63.86
2023-05-01T10:26:52.395Z,63.88
2023-05-01T10:27:52.371Z,64.90
2023-05-01T10:28:52.361Z,65.14
2023-05-01T10:29:52.359Z,65.46
2023-05-01T10:30:52.374Z,64.23
2023-05-01T10:31:53.523Z,65.34
2023-05-01T10:32:52.346Z,65.87
2023-05-01T10:33:52.436Z,66.90
2023-05-01T10:34:52.296Z,65.63
2023-05-01T10:35:52.300Z,65.63
2023-05-01T10:36:52.297Z,64.99
2023-05-01T10:37:52.280Z,67.14
2023-05-01T10:38:52.322Z,66.53
2023-05-01T10:39:52.259Z,65.59
2023-05-01T10:40:52.257Z,66.44
2023-05-01T10:41:52.252Z,65.74
2023-05-01T10:42:52.233Z,65.79
2023-05-01T10:43:52.223Z,65.58
2023-05-01T10:44:52.236Z,65.69
2023-05-01T10:45:52.235Z,65.28
2023-05-01T10:46:52.217Z,65.32
2023-05-01T10:47:52.213Z,66.49
2023-05-01T10:48:52.392Z,66.55
2023-05-01T10:49:52.156Z,67.24
2023-05-01T10:50:52.150Z,66.83
2023-05-01T10:51:52.477Z,65.51
2023-05-01T10:52:52.134Z,66.12
2023-05-01T10:53:52.118Z,64.77
2023-05-01T10:54:52.137Z,64.38
2023-05-01T10:55:52.111Z,64.38
2023-05-01T10:56:52.254Z,65.11
2023-05-01T10:57:52.092Z,64.66
2023-05-01T10:58:52.084Z,64.72
2023-05-01T10:59:52.059Z,65.02
2023-05-01T11:00:52.051Z,63.94
2023-05-01T11:01:52.218Z,65.54
2023-05-01T11:02:52.094Z,67.31
2023-05-01T11:03:52.028Z,66.09
2023-05-01T11:04:52.176Z,66.11
2023-05-01T11:05:52.007Z,67.72
2023-05-01T11:06:52.027Z,67.29
2023-05-01T11:07:51.991Z,64.98
2023-05-01T11:08:51.976Z,65.88
2023-05-01T11:09:51.971Z,66.61
2023-05-01T11:10:52.013Z,68.46
2023-05-01T11:11:51.971Z,68.20
2023-05-01T11:12:52.167Z,68.60
2023-05-01T11:13:52.116Z,67.60
2023-05-01T11:14:51.985Z,66.91
2023-05-01T11:15:51.969Z,65.77
2023-05-01T11:16:51.947Z,66.82
2023-05-01T11:17:52.036Z,66.86
2023-05-01T11:18:51.989Z,65.73
2023-05-01T11:19:51.895Z,66.74
2023-05-01T11:20:51.860Z,66.37
2023-05-01T11:21:52.061Z,67.64
2023-05-01T11:22:51.850Z,68.15
2023-05-01T11:23:51.827Z,67.67
2023-05-01T11:24:51.816Z,65.80
2023-05-01T11:25:51.807Z,65.08
2023-05-01T11:26:51.803Z,65.11
2023-05-01T11:27:51.803Z,66.71
2023-05-01T11:28:51.780Z,65.82
2023-05-01T11:29:51.933Z,65.41
2023-05-01T11:30:51.766Z,65.00
2023-05-01T11:31:51.785Z,65.77
2023-05-01T11:32:51.885Z,66.66
2023-05-01T11:33:51.739Z,66.59
2023-05-01T11:34:51.719Z,67.85
2023-05-01T11:35:51.712Z,67.46
2023-05-01T11:36:52.305Z,64.05
2023-05-01T11:37:51.705Z,64.71
2023-05-01T11:38:51.743Z,64.88
2023-05-01T11:39:51.686Z,66.61
2023-05-01T11:40:51.674Z,67.16
2023-05-01T11:41:51.694Z,66.91
2023-05-01T11:42:51.665Z,67.07
2023-05-01T11:43:51.647Z,66.26
2023-05-01T11:44:51.626Z,66.42
2023-05-01T11:45:51.689Z,67.70
2023-05-01T11:46:51.609Z,66.51
2023-05-01T11:47:51.723Z,65.09
2023-05-01T11:48:51.593Z,64.60
2023-05-01T11:49:51.579Z,65.68
2023-05-01T11:50:51.581Z,66.25
2023-05-01T11:51:51.571Z,64.62
2023-05-01T11:52:51.566Z,64.26
2023-05-01T11:53:51.676Z,64.53
2023-05-01T11:54:51.534Z,65.26
2023-05-01T11:55:51.635Z,66.94
2023-05-01T11:56:51.513Z,66.78
2023-05-01T11:57:51.525Z,66.30
2023-05-01T11:58:51.498Z,67.36
2023-05-01T11:59:51.489Z,65.92
2023-05-01T12:00:51.564Z,66.74
2023-05-01T12:01:52.508Z,66.27
2023-05-01T12:02:51.652Z,64.27
2023-05-01T12:03:51.509Z,64.11
2023-05-01T12:04:51.581Z,64.69
2023-05-01T12:05:51.431Z,64.98
2023-05-01T12:06:51.546Z,64.81
2023-05-01T12:07:51.430Z,64.73
2023-05-01T12:08:51.424Z,65.40
2023-05-01T12:09:51.393Z,64.22
2023-05-01T12:10:51.382Z,64.84
2023-05-01T12:11:52.536Z,64.67
2023-05-01T12:12:52.387Z,66.59
2023-05-01T12:13:51.354Z,64.84
2023-05-01T12:14:51.342Z,66.62
2023-05-01T12:15:51.351Z,63.99
2023-05-01T12:16:51.347Z,64.02
2023-05-01T12:17:51.372Z,63.40
2023-05-01T12:18:51.379Z,63.62
2023-05-01T12:19:51.309Z,63.49
2023-05-01T12:20:51.351Z,63.72
2023-05-01T12:21:51.277Z,64.85
2023-05-01T12:22:51.279Z,66.32
2023-05-01T12:23:51.304Z,65.98
2023-05-01T12:24:51.256Z,66.31
2023-05-01T12:25:51.244Z,66.27
2023-05-01T12:26:51.309Z,67.02
2023-05-01T12:27:52.249Z,67.84
2023-05-01T12:28:51.214Z,66.18
2023-05-01T12:29:51.197Z,66.83
2023-05-01T12:30:51.193Z,66.85
2023-05-01T12:31:51.248Z,65.95
2023-05-01T12:32:51.229Z,66.45
2023-05-01T12:33:51.182Z,66.09
2023-05-01T12:34:51.152Z,65.39
2023-05-01T12:35:51.161Z,67.08
2023-05-01T12:36:51.135Z,67.76
2023-05-01T12:37:51.130Z,68.06
2023-05-01T12:38:51.107Z,68.72
2023-05-01T12:39:51.129Z,66.97
2023-05-01T12:40:51.091Z,66.54
2023-05-01T12:41:51.183Z,67.48
2023-05-01T12:42:51.096Z,64.88
2023-05-01T12:43:51.068Z,66.66
2023-05-01T12:44:51.050Z,66.97
2023-05-01T12:45:51.046Z,65.14
2023-05-01T12:46:51.184Z,66.09
2023-05-01T12:47:51.253Z,67.40
2023-05-01T12:48:52.402Z,67.18
2023-05-01T12:49:51.006Z,66.71
2023-05-01T12:50:51.598Z,65.79
2023-05-01T12:51:52.069Z,66.74
2023-05-01T12:52:51.021Z,66.33